sensor_id;sensor_type;location;lat;lon;timestamp;temperature;humidity
24802;DHT22;12898;50.520;12.152;2023-02-12T00:01:10;3.10;99.90
24802;DHT22;12898;50.520;12.152;2023-02-12T00:03:37;3.10;99.90
24802;DHT22;12898;50.520;12.152;2023-02-12T00:06:02;3.10;99.90
24802;DHT22;12898;50.520;12.152;2023-02-12T00:08:28;3.10;99.90
24802;DHT22;12898;50.520;12.152;2023-02-12T00:10:54;3.10;99.90
24802;DHT22;12898;50.520;12.152;2023-02-12T00:13:20;3.00;99.90
24802;DHT22;12898;50.520;12.152;2023-02-12T00:15:46;3.00;99.90
24802;DHT22;12898;50.520;12.152;2023-02-12T00:18:11;3.00;99.90
24802;DHT22;12898;50.520;12.152;2023-02-12T00:20:37;3.00;99.90
24802;DHT22;12898;50.520;12.152;2023-02-12T00:23:03;3.10;99.90
24802;DHT22;12898;50.520;12.152;2023-02-12T00:25:30;3.10;99.90
24802;DHT22;12898;50.520;12.152;2023-02-12T00:27:55;3.10;99.90
24802;DHT22;12898;50.520;12.152;2023-02-12T00:30:21;3.00;99.90
24802;DHT22;12898;50.520;12.152;2023-02-12T00:32:47;3.00;99.90
24802;DHT22;12898;50.520;12.152;2023-02-12T00:35:13;3.00;99.90
24802;DHT22;12898;50.520;12.152;2023-02-12T00:37:38;3.00;99.90
24802;DHT22;12898;50.520;12.152;2023-02-12T00:40:05;3.10;99.90
24802;DHT22;12898;50.520;12.152;2023-02-12T00:42:31;3.10;99.90
24802;DHT22;12898;50.520;12.152;2023-02-12T00:44:57;3.10;99.90
24802;DHT22;12898;50.520;12.152;2023-02-12T00:47:22;3.10;99.90
24802;DHT22;12898;50.520;12.152;2023-02-12T00:49:48;3.10;99.90
24802;DHT22;12898;50.520;12.152;2023-02-12T00:52:14;3.10;99.90
24802;DHT22;12898;50.520;12.152;2023-02-12T00:54:39;3.20;99.90
24802;DHT22;12898;50.520;12.152;2023-02-12T00:57:05;3.20;99.90
24802;DHT22;12898;50.520;12.152;2023-02-12T00:59:31;3.20;99.90
24802;DHT22;12898;50.520;12.152;2023-02-12T01:01:57;3.10;99.90
24802;DHT22;12898;50.520;12.152;2023-02-12T01:04:23;3.20;99.90
24802;DHT22;12898;50.520;12.152;2023-02-12T01:06:48;3.10;99.90
24802;DHT22;12898;50.520;12.152;2023-02-12T01:09:14;3.10;99.90
24802;DHT22;12898;50.520;12.152;2023-02-12T01:11:40;3.10;99.90
24802;DHT22;12898;50.520;12.152;2023-02-12T01:14:06;3.10;99.90
24802;DHT22;12898;50.520;12.152;2023-02-12T01:16:32;3.10;99.90
24802;DHT22;12898;50.520;12.152;2023-02-12T01:19:00;3.10;99.90
24802;DHT22;12898;50.520;12.152;2023-02-12T01:21:28;3.10;99.90
24802;DHT22;12898;50.520;12.152;2023-02-12T01:23:55;3.10;99.90
24802;DHT22;12898;50.520;12.152;2023-02-12T01:26:21;3.10;99.90
24802;DHT22;12898;50.520;12.152;2023-02-12T01:28:50;3.10;99.90
24802;DHT22;12898;50.520;12.152;2023-02-12T01:31:20;3.10;99.90
24802;DHT22;12898;50.520;12.152;2023-02-12T01:33:48;3.10;99.90
24802;DHT22;12898;50.520;12.152;2023-02-12T01:36:18;3.10;99.90
24802;DHT22;12898;50.520;12.152;2023-02-12T01:38:45;3.10;99.90
24802;DHT22;12898;50.520;12.152;2023-02-12T01:41:15;3.10;99.90
24802;DHT22;12898;50.520;12.152;2023-02-12T01:43:43;3.10;99.90
24802;DHT22;12898;50.520;12.152;2023-02-12T01:46:12;3.10;99.90
24802;DHT22;12898;50.520;12.152;2023-02-12T01:48:44;3.10;99.90
24802;DHT22;12898;50.520;12.152;2023-02-12T01:51:15;3.10;99.90
24802;DHT22;12898;50.520;12.152;2023-02-12T01:53:50;3.10;99.90
24802;DHT22;12898;50.520;12.152;2023-02-12T01:56:18;3.10;99.90
24802;DHT22;12898;50.520;12.152;2023-02-12T01:58:45;3.10;99.90
24802;DHT22;12898;50.520;12.152;2023-02-12T02:01:23;3.10;99.90
24802;DHT22;12898;50.520;12.152;2023-02-12T02:03:53;3.10;99.90
24802;DHT22;12898;50.520;12.152;2023-02-12T02:06:33;3.10;99.90
24802;DHT22;12898;50.520;12.152;2023-02-12T02:09:01;3.10;99.90
24802;DHT22;12898;50.520;12.152;2023-02-12T02:11:28;3.10;99.90
24802;DHT22;12898;50.520;12.152;2023-02-12T02:14:12;3.10;99.90
24802;DHT22;12898;50.520;12.152;2023-02-12T02:22:53;3.10;99.90
24802;DHT22;12898;50.520;12.152;2023-02-12T02:32:07;3.10;99.90
24802;DHT22;12898;50.520;12.152;2023-02-12T02:34:57;3.10;99.90
24802;DHT22;12898;50.520;12.152;2023-02-12T02:37:36;3.10;99.90
24802;DHT22;12898;50.520;12.152;2023-02-12T02:40:16;3.10;99.90
24802;DHT22;12898;50.520;12.152;2023-02-12T02:45:33;3.10;99.90
24802;DHT22;12898;50.520;12.152;2023-02-12T02:51:11;3.20;99.90
24802;DHT22;12898;50.520;12.152;2023-02-12T02:53:45;3.20;99.90
24802;DHT22;12898;50.520;12.152;2023-02-12T02:56:16;3.30;99.90
24802;DHT22;12898;50.520;12.152;2023-02-12T02:58:54;3.40;99.90
24802;DHT22;12898;50.520;12.152;2023-02-12T03:01:29;3.40;99.90
24802;DHT22;12898;50.520;12.152;2023-02-12T03:04:17;3.50;99.90
24802;DHT22;12898;50.520;12.152;2023-02-12T03:06:53;3.50;99.90
24802;DHT22;12898;50.520;12.152;2023-02-12T03:09:36;3.50;99.90
24802;DHT22;12898;50.520;12.152;2023-02-12T03:12:12;3.50;99.90
24802;DHT22;12898;50.520;12.152;2023-02-12T03:15:19;3.50;99.90
24802;DHT22;12898;50.520;12.152;2023-02-12T03:17:49;3.50;99.90
24802;DHT22;12898;50.520;12.152;2023-02-12T03:20:22;3.50;99.90
24802;DHT22;12898;50.520;12.152;2023-02-12T03:23:23;3.50;99.90
24802;DHT22;12898;50.520;12.152;2023-02-12T03:26:03;3.60;99.90
24802;DHT22;12898;50.520;12.152;2023-02-12T03:28:34;3.70;99.90
24802;DHT22;12898;50.520;12.152;2023-02-12T03:36:48;3.70;99.90
24802;DHT22;12898;50.520;12.152;2023-02-12T03:44:51;3.70;99.90
24802;DHT22;12898;50.520;12.152;2023-02-12T03:47:45;3.70;99.90
24802;DHT22;12898;50.520;12.152;2023-02-12T03:50:36;3.70;99.90
24802;DHT22;12898;50.520;12.152;2023-02-12T03:53:05;3.70;99.90
24802;DHT22;12898;50.520;12.152;2023-02-12T03:55:34;3.70;99.90
24802;DHT22;12898;50.520;12.152;2023-02-12T03:58:02;3.70;99.90
24802;DHT22;12898;50.520;12.152;2023-02-12T04:00:32;3.70;99.90
24802;DHT22;12898;50.520;12.152;2023-02-12T04:02:57;3.70;99.90
24802;DHT22;12898;50.520;12.152;2023-02-12T04:05:25;3.70;99.90
24802;DHT22;12898;50.520;12.152;2023-02-12T04:07:53;3.70;99.90
24802;DHT22;12898;50.520;12.152;2023-02-12T04:10:32;3.70;99.90
24802;DHT22;12898;50.520;12.152;2023-02-12T04:13:17;3.80;99.90
24802;DHT22;12898;50.520;12.152;2023-02-12T04:18:48;3.80;99.90
24802;DHT22;12898;50.520;12.152;2023-02-12T04:26:59;3.90;99.90
24802;DHT22;12898;50.520;12.152;2023-02-12T04:29:40;3.90;99.90
24802;DHT22;12898;50.520;12.152;2023-02-12T04:32:38;3.80;99.90
24802;DHT22;12898;50.520;12.152;2023-02-12T04:40:51;3.80;99.90
24802;DHT22;12898;50.520;12.152;2023-02-12T04:43:29;3.80;99.90
24802;DHT22;12898;50.520;12.152;2023-02-12T04:45:56;3.80;99.90
24802;DHT22;12898;50.520;12.152;2023-02-12T04:48:22;3.80;99.90
24802;DHT22;12898;50.520;12.152;2023-02-12T04:50:47;3.80;99.90
24802;DHT22;12898;50.520;12.152;2023-02-12T04:53:13;3.80;99.90
24802;DHT22;12898;50.520;12.152;2023-02-12T04:55:39;3.80;99.90
24802;DHT22;12898;50.520;12.152;2023-02-12T04:58:05;3.80;99.90
24802;DHT22;12898;50.520;12.152;2023-02-12T05:00:31;3.80;99.90
24802;DHT22;12898;50.520;12.152;2023-02-12T05:02:57;3.80;99.90
24802;DHT22;12898;50.520;12.152;2023-02-12T05:05:22;3.80;99.90
24802;DHT22;12898;50.520;12.152;2023-02-12T05:07:48;3.90;99.90
24802;DHT22;12898;50.520;12.152;2023-02-12T05:10:14;3.90;99.90
24802;DHT22;12898;50.520;12.152;2023-02-12T05:12:40;3.90;99.90
24802;DHT22;12898;50.520;12.152;2023-02-12T05:15:06;3.90;99.90
24802;DHT22;12898;50.520;12.152;2023-02-12T05:17:32;3.90;99.90
24802;DHT22;12898;50.520;12.152;2023-02-12T05:19:58;3.90;99.90
24802;DHT22;12898;50.520;12.152;2023-02-12T05:22:23;3.90;99.90
24802;DHT22;12898;50.520;12.152;2023-02-12T05:24:49;3.90;99.90
24802;DHT22;12898;50.520;12.152;2023-02-12T05:27:15;3.90;99.90
24802;DHT22;12898;50.520;12.152;2023-02-12T05:29:40;3.90;99.90
24802;DHT22;12898;50.520;12.152;2023-02-12T05:32:06;3.90;99.90
24802;DHT22;12898;50.520;12.152;2023-02-12T05:34:33;3.90;99.90
24802;DHT22;12898;50.520;12.152;2023-02-12T05:36:59;3.90;99.90
24802;DHT22;12898;50.520;12.152;2023-02-12T05:39:25;3.90;99.90
24802;DHT22;12898;50.520;12.152;2023-02-12T05:41:50;3.90;99.90
24802;DHT22;12898;50.520;12.152;2023-02-12T05:44:16;3.90;99.90
24802;DHT22;12898;50.520;12.152;2023-02-12T05:46:42;3.80;99.90
24802;DHT22;12898;50.520;12.152;2023-02-12T05:49:08;3.80;99.90
24802;DHT22;12898;50.520;12.152;2023-02-12T05:51:35;3.80;99.90
24802;DHT22;12898;50.520;12.152;2023-02-12T05:54:03;3.90;99.90
24802;DHT22;12898;50.520;12.152;2023-02-12T05:56:32;3.80;99.90
24802;DHT22;12898;50.520;12.152;2023-02-12T05:59:04;3.90;99.90
24802;DHT22;12898;50.520;12.152;2023-02-12T06:01:32;3.90;99.90
24802;DHT22;12898;50.520;12.152;2023-02-12T06:04:05;3.90;99.90
24802;DHT22;12898;50.520;12.152;2023-02-12T06:06:33;3.90;99.90
24802;DHT22;12898;50.520;12.152;2023-02-12T06:09:00;3.80;99.90
24802;DHT22;12898;50.520;12.152;2023-02-12T06:11:26;3.90;99.90
24802;DHT22;12898;50.520;12.152;2023-02-12T06:13:52;3.80;99.90
24802;DHT22;12898;50.520;12.152;2023-02-12T06:16:26;3.80;99.90
24802;DHT22;12898;50.520;12.152;2023-02-12T06:18:53;3.80;99.90
24802;DHT22;12898;50.520;12.152;2023-02-12T06:21:21;3.90;99.90
24802;DHT22;12898;50.520;12.152;2023-02-12T06:23:49;3.80;99.90
24802;DHT22;12898;50.520;12.152;2023-02-12T06:26:16;3.80;99.90
24802;DHT22;12898;50.520;12.152;2023-02-12T06:28:43;3.90;99.90
24802;DHT22;12898;50.520;12.152;2023-02-12T06:31:35;3.90;99.90
24802;DHT22;12898;50.520;12.152;2023-02-12T06:34:04;3.90;99.90
24802;DHT22;12898;50.520;12.152;2023-02-12T06:36:32;3.80;99.90
24802;DHT22;12898;50.520;12.152;2023-02-12T06:39:00;3.80;99.90
24802;DHT22;12898;50.520;12.152;2023-02-12T06:41:46;3.80;99.90
24802;DHT22;12898;50.520;12.152;2023-02-12T06:44:12;3.80;99.90
24802;DHT22;12898;50.520;12.152;2023-02-12T06:46:37;3.70;99.90
24802;DHT22;12898;50.520;12.152;2023-02-12T06:49:03;3.80;99.90
24802;DHT22;12898;50.520;12.152;2023-02-12T06:51:29;3.80;99.90
24802;DHT22;12898;50.520;12.152;2023-02-12T06:53:56;3.80;99.90
24802;DHT22;12898;50.520;12.152;2023-02-12T06:56:23;3.80;99.90
24802;DHT22;12898;50.520;12.152;2023-02-12T06:58:57;3.90;99.90
24802;DHT22;12898;50.520;12.152;2023-02-12T07:01:27;3.90;99.90
24802;DHT22;12898;50.520;12.152;2023-02-12T07:03:59;3.90;99.90
24802;DHT22;12898;50.520;12.152;2023-02-12T07:06:27;3.90;99.90
24802;DHT22;12898;50.520;12.152;2023-02-12T07:08:54;3.90;99.90
24802;DHT22;12898;50.520;12.152;2023-02-12T07:11:25;3.90;99.90
24802;DHT22;12898;50.520;12.152;2023-02-12T07:13:52;3.90;99.90
24802;DHT22;12898;50.520;12.152;2023-02-12T07:16:17;3.90;99.90
24802;DHT22;12898;50.520;12.152;2023-02-12T07:18:44;4.00;99.90
24802;DHT22;12898;50.520;12.152;2023-02-12T07:21:11;4.00;99.90
24802;DHT22;12898;50.520;12.152;2023-02-12T07:23:38;4.00;99.90
24802;DHT22;12898;50.520;12.152;2023-02-12T07:26:06;4.00;99.90
24802;DHT22;12898;50.520;12.152;2023-02-12T07:28:36;4.00;99.90
24802;DHT22;12898;50.520;12.152;2023-02-12T07:31:07;4.00;99.90
24802;DHT22;12898;50.520;12.152;2023-02-12T07:33:38;4.10;99.90
24802;DHT22;12898;50.520;12.152;2023-02-12T07:36:07;4.10;99.90
24802;DHT22;12898;50.520;12.152;2023-02-12T07:38:34;4.10;99.90
24802;DHT22;12898;50.520;12.152;2023-02-12T07:41:09;4.10;99.90
24802;DHT22;12898;50.520;12.152;2023-02-12T07:43:43;4.10;99.90
24802;DHT22;12898;50.520;12.152;2023-02-12T07:46:12;4.10;99.90
24802;DHT22;12898;50.520;12.152;2023-02-12T07:48:41;4.10;99.90
24802;DHT22;12898;50.520;12.152;2023-02-12T07:51:10;4.10;99.90
24802;DHT22;12898;50.520;12.152;2023-02-12T07:53:37;4.20;99.90
24802;DHT22;12898;50.520;12.152;2023-02-12T07:56:11;4.20;99.90
24802;DHT22;12898;50.520;12.152;2023-02-12T07:58:42;4.20;99.90
24802;DHT22;12898;50.520;12.152;2023-02-12T08:01:23;4.30;99.90
24802;DHT22;12898;50.520;12.152;2023-02-12T08:03:57;4.30;99.90
24802;DHT22;12898;50.520;12.152;2023-02-12T08:06:29;4.40;99.90
24802;DHT22;12898;50.520;12.152;2023-02-12T08:08:59;4.30;99.90
24802;DHT22;12898;50.520;12.152;2023-02-12T08:11:27;4.40;99.90
24802;DHT22;12898;50.520;12.152;2023-02-12T08:13:54;4.40;99.90
24802;DHT22;12898;50.520;12.152;2023-02-12T08:16:22;4.40;99.90
24802;DHT22;12898;50.520;12.152;2023-02-12T08:18:50;4.40;99.90
24802;DHT22;12898;50.520;12.152;2023-02-12T08:21:20;4.40;99.90
24802;DHT22;12898;50.520;12.152;2023-02-12T08:23:48;4.50;99.90
24802;DHT22;12898;50.520;12.152;2023-02-12T08:26:18;4.50;99.90
24802;DHT22;12898;50.520;12.152;2023-02-12T08:28:50;4.50;99.90
24802;DHT22;12898;50.520;12.152;2023-02-12T08:31:23;4.60;99.90
24802;DHT22;12898;50.520;12.152;2023-02-12T08:33:52;4.60;99.90
24802;DHT22;12898;50.520;12.152;2023-02-12T08:36:23;4.60;99.90
24802;DHT22;12898;50.520;12.152;2023-02-12T08:38:55;4.60;99.90
24802;DHT22;12898;50.520;12.152;2023-02-12T08:41:25;4.70;99.90
24802;DHT22;12898;50.520;12.152;2023-02-12T08:43:55;4.70;99.90
24802;DHT22;12898;50.520;12.152;2023-02-12T08:46:24;4.70;99.90
24802;DHT22;12898;50.520;12.152;2023-02-12T08:48:54;4.80;99.90
24802;DHT22;12898;50.520;12.152;2023-02-12T08:51:24;4.80;99.90
24802;DHT22;12898;50.520;12.152;2023-02-12T08:53:53;4.80;99.90
24802;DHT22;12898;50.520;12.152;2023-02-12T08:56:20;4.80;99.90
24802;DHT22;12898;50.520;12.152;2023-02-12T08:58:47;4.90;99.90
24802;DHT22;12898;50.520;12.152;2023-02-12T09:01:19;4.90;99.90
24802;DHT22;12898;50.520;12.152;2023-02-12T09:03:47;4.90;99.90
24802;DHT22;12898;50.520;12.152;2023-02-12T09:06:14;5.00;99.90
24802;DHT22;12898;50.520;12.152;2023-02-12T09:08:41;5.00;99.90
24802;DHT22;12898;50.520;12.152;2023-02-12T09:11:09;5.00;99.90
24802;DHT22;12898;50.520;12.152;2023-02-12T09:13:38;5.00;99.90
24802;DHT22;12898;50.520;12.152;2023-02-12T09:16:05;5.10;99.90
24802;DHT22;12898;50.520;12.152;2023-02-12T09:18:32;5.10;99.90
24802;DHT22;12898;50.520;12.152;2023-02-12T09:21:09;5.10;99.90
24802;DHT22;12898;50.520;12.152;2023-02-12T09:23:37;5.10;99.90
24802;DHT22;12898;50.520;12.152;2023-02-12T09:26:08;5.20;99.90
24802;DHT22;12898;50.520;12.152;2023-02-12T09:28:35;5.20;99.90
24802;DHT22;12898;50.520;12.152;2023-02-12T09:31:08;5.30;99.90
24802;DHT22;12898;50.520;12.152;2023-02-12T09:33:35;5.40;99.90
24802;DHT22;12898;50.520;12.152;2023-02-12T09:36:07;5.40;99.90
24802;DHT22;12898;50.520;12.152;2023-02-12T09:38:35;5.50;99.90
24802;DHT22;12898;50.520;12.152;2023-02-12T09:43:57;5.60;99.90
24802;DHT22;12898;50.520;12.152;2023-02-12T09:46:30;5.70;99.90
24802;DHT22;12898;50.520;12.152;2023-02-12T09:49:33;5.70;99.90
24802;DHT22;12898;50.520;12.152;2023-02-12T09:52:03;5.80;99.90
24802;DHT22;12898;50.520;12.152;2023-02-12T09:54:37;5.90;99.90
24802;DHT22;12898;50.520;12.152;2023-02-12T09:57:18;6.00;99.90
24802;DHT22;12898;50.520;12.152;2023-02-12T10:00:01;6.00;99.90
24802;DHT22;12898;50.520;12.152;2023-02-12T10:02:33;6.10;99.90
24802;DHT22;12898;50.520;12.152;2023-02-12T10:05:00;6.20;99.90
24802;DHT22;12898;50.520;12.152;2023-02-12T10:13:13;6.40;99.90
24802;DHT22;12898;50.520;12.152;2023-02-12T10:16:09;6.50;99.90
24802;DHT22;12898;50.520;12.152;2023-02-12T10:22:59;6.70;99.90
24802;DHT22;12898;50.520;12.152;2023-02-12T10:25:25;6.80;99.90
24802;DHT22;12898;50.520;12.152;2023-02-12T10:27:56;6.90;99.90
24802;DHT22;12898;50.520;12.152;2023-02-12T10:30:42;7.00;99.90
24802;DHT22;12898;50.520;12.152;2023-02-12T10:36:03;6.90;99.90
24802;DHT22;12898;50.520;12.152;2023-02-12T10:38:35;6.90;99.90
24802;DHT22;12898;50.520;12.152;2023-02-12T10:41:04;6.90;99.90
24802;DHT22;12898;50.520;12.152;2023-02-12T10:43:29;6.90;99.90
24802;DHT22;12898;50.520;12.152;2023-02-12T10:45:55;6.80;99.90
24802;DHT22;12898;50.520;12.152;2023-02-12T10:48:36;6.90;99.90
24802;DHT22;12898;50.520;12.152;2023-02-12T10:53:44;6.90;99.90
24802;DHT22;12898;50.520;12.152;2023-02-12T11:01:28;7.30;99.90
24802;DHT22;12898;50.520;12.152;2023-02-12T11:03:56;7.30;99.90
24802;DHT22;12898;50.520;12.152;2023-02-12T11:06:28;7.40;99.90
24802;DHT22;12898;50.520;12.152;2023-02-12T11:08:57;7.50;99.90
24802;DHT22;12898;50.520;12.152;2023-02-12T11:11:24;7.40;99.90
24802;DHT22;12898;50.520;12.152;2023-02-12T11:16:30;7.50;99.90
24802;DHT22;12898;50.520;12.152;2023-02-12T11:19:03;7.50;99.90
24802;DHT22;12898;50.520;12.152;2023-02-12T11:21:31;7.50;99.90
24802;DHT22;12898;50.520;12.152;2023-02-12T11:24:33;7.60;99.90
24802;DHT22;12898;50.520;12.152;2023-02-12T11:30:14;7.60;99.90
24802;DHT22;12898;50.520;12.152;2023-02-12T11:32:46;7.60;99.90
24802;DHT22;12898;50.520;12.152;2023-02-12T11:35:23;7.50;99.90
24802;DHT22;12898;50.520;12.152;2023-02-12T11:37:54;7.50;99.90
24802;DHT22;12898;50.520;12.152;2023-02-12T11:40:27;7.50;99.90
24802;DHT22;12898;50.520;12.152;2023-02-12T11:43:04;7.50;99.90
24802;DHT22;12898;50.520;12.152;2023-02-12T11:45:35;7.60;99.90
24802;DHT22;12898;50.520;12.152;2023-02-12T11:48:24;7.60;99.90
24802;DHT22;12898;50.520;12.152;2023-02-12T11:50:54;7.60;99.90
24802;DHT22;12898;50.520;12.152;2023-02-12T11:53:42;7.60;99.90
24802;DHT22;12898;50.520;12.152;2023-02-12T11:56:13;7.60;99.90
24802;DHT22;12898;50.520;12.152;2023-02-12T11:58:39;7.60;99.90
24802;DHT22;12898;50.520;12.152;2023-02-12T12:01:19;7.60;99.90
24802;DHT22;12898;50.520;12.152;2023-02-12T12:06:35;7.60;99.90
24802;DHT22;12898;50.520;12.152;2023-02-12T12:09:09;7.60;99.90
24802;DHT22;12898;50.520;12.152;2023-02-12T12:12:15;7.60;99.90
24802;DHT22;12898;50.520;12.152;2023-02-12T12:14:54;7.60;99.90
24802;DHT22;12898;50.520;12.152;2023-02-12T12:21:00;7.80;99.90
24802;DHT22;12898;50.520;12.152;2023-02-12T12:23:39;7.70;99.90
24802;DHT22;12898;50.520;12.152;2023-02-12T12:26:37;7.70;99.90
24802;DHT22;12898;50.520;12.152;2023-02-12T12:29:18;7.60;99.90
24802;DHT22;12898;50.520;12.152;2023-02-12T12:31:52;7.60;99.90
24802;DHT22;12898;50.520;12.152;2023-02-12T12:34:24;7.50;99.90
24802;DHT22;12898;50.520;12.152;2023-02-12T12:54:25;7.40;99.90
24802;DHT22;12898;50.520;12.152;2023-02-12T12:57:11;7.30;99.90
24802;DHT22;12898;50.520;12.152;2023-02-12T13:09:40;7.10;99.90
24802;DHT22;12898;50.520;12.152;2023-02-12T13:27:31;6.90;99.90
24802;DHT22;12898;50.520;12.152;2023-02-12T13:30:21;6.90;99.90
24802;DHT22;12898;50.520;12.152;2023-02-12T13:35:19;6.90;99.90
24802;DHT22;12898;50.520;12.152;2023-02-12T13:37:50;6.90;99.90
24802;DHT22;12898;50.520;12.152;2023-02-12T13:40:20;6.90;99.90
24802;DHT22;12898;50.520;12.152;2023-02-12T13:48:21;6.90;99.90
24802;DHT22;12898;50.520;12.152;2023-02-12T13:51:27;6.90;99.90
24802;DHT22;12898;50.520;12.152;2023-02-12T13:54:16;7.00;99.90
24802;DHT22;12898;50.520;12.152;2023-02-12T13:56:55;7.00;99.90
24802;DHT22;12898;50.520;12.152;2023-02-12T14:07:52;7.00;99.90
24802;DHT22;12898;50.520;12.152;2023-02-12T14:10:27;7.00;99.90
24802;DHT22;12898;50.520;12.152;2023-02-12T14:13:10;7.00;99.90
24802;DHT22;12898;50.520;12.152;2023-02-12T14:15:41;7.00;99.90
24802;DHT22;12898;50.520;12.152;2023-02-12T14:23:46;6.90;99.90
24802;DHT22;12898;50.520;12.152;2023-02-12T14:26:16;6.80;99.90
24802;DHT22;12898;50.520;12.152;2023-02-12T14:29:14;6.80;99.90
24802;DHT22;12898;50.520;12.152;2023-02-12T14:31:45;6.80;99.90
24802;DHT22;12898;50.520;12.152;2023-02-12T14:36:39;6.80;99.90
24802;DHT22;12898;50.520;12.152;2023-02-12T14:42:40;6.80;99.90
24802;DHT22;12898;50.520;12.152;2023-02-12T14:44:45;6.80;99.90
24802;DHT22;12898;50.520;12.152;2023-02-12T14:49:56;6.80;99.90
24802;DHT22;12898;50.520;12.152;2023-02-12T14:52:31;6.80;99.90
24802;DHT22;12898;50.520;12.152;2023-02-12T14:55:12;6.80;99.90
24802;DHT22;12898;50.520;12.152;2023-02-12T14:57:45;6.70;99.90
24802;DHT22;12898;50.520;12.152;2023-02-12T15:00:36;6.70;99.90
24802;DHT22;12898;50.520;12.152;2023-02-12T15:03:28;6.70;99.90
24802;DHT22;12898;50.520;12.152;2023-02-12T15:06:17;6.70;99.90
24802;DHT22;12898;50.520;12.152;2023-02-12T15:09:14;6.70;99.90
24802;DHT22;12898;50.520;12.152;2023-02-12T15:11:49;6.70;99.90
24802;DHT22;12898;50.520;12.152;2023-02-12T15:14:26;6.70;99.90
24802;DHT22;12898;50.520;12.152;2023-02-12T15:22:41;6.70;99.90
24802;DHT22;12898;50.520;12.152;2023-02-12T15:27:51;6.60;99.90
24802;DHT22;12898;50.520;12.152;2023-02-12T15:30:22;6.60;99.90
24802;DHT22;12898;50.520;12.152;2023-02-12T15:32:50;6.60;99.90
24802;DHT22;12898;50.520;12.152;2023-02-12T15:37:48;6.50;99.90
24802;DHT22;12898;50.520;12.152;2023-02-12T15:40:15;6.40;99.90
24802;DHT22;12898;50.520;12.152;2023-02-12T15:42:52;6.40;99.90
24802;DHT22;12898;50.520;12.152;2023-02-12T15:45:28;6.40;99.90
24802;DHT22;12898;50.520;12.152;2023-02-12T15:48:18;6.40;99.90
24802;DHT22;12898;50.520;12.152;2023-02-12T15:51:08;6.40;99.90
24802;DHT22;12898;50.520;12.152;2023-02-12T15:53:35;6.30;99.90
24802;DHT22;12898;50.520;12.152;2023-02-12T15:56:01;6.30;99.90
24802;DHT22;12898;50.520;12.152;2023-02-12T15:58:31;6.30;99.90
24802;DHT22;12898;50.520;12.152;2023-02-12T16:01:03;6.20;99.90
24802;DHT22;12898;50.520;12.152;2023-02-12T16:03:33;6.20;99.90
24802;DHT22;12898;50.520;12.152;2023-02-12T16:08:39;6.10;99.90
24802;DHT22;12898;50.520;12.152;2023-02-12T16:11:07;6.10;99.90
24802;DHT22;12898;50.520;12.152;2023-02-12T16:13:48;6.10;99.90
24802;DHT22;12898;50.520;12.152;2023-02-12T16:16:25;6.00;99.90
24802;DHT22;12898;50.520;12.152;2023-02-12T16:19:29;6.10;99.90
24802;DHT22;12898;50.520;12.152;2023-02-12T16:22:06;6.00;99.90
24802;DHT22;12898;50.520;12.152;2023-02-12T16:24:37;6.00;99.90
24802;DHT22;12898;50.520;12.152;2023-02-12T16:27:19;5.90;99.90
24802;DHT22;12898;50.520;12.152;2023-02-12T16:29:51;5.90;99.90
24802;DHT22;12898;50.520;12.152;2023-02-12T16:32:42;5.80;99.90
24802;DHT22;12898;50.520;12.152;2023-02-12T16:48:07;5.60;99.90
24802;DHT22;12898;50.520;12.152;2023-02-12T16:50:35;5.60;99.90
24802;DHT22;12898;50.520;12.152;2023-02-12T16:53:21;5.60;99.90
24802;DHT22;12898;50.520;12.152;2023-02-12T16:55:54;5.50;99.90
24802;DHT22;12898;50.520;12.152;2023-02-12T16:58:20;5.50;99.90
24802;DHT22;12898;50.520;12.152;2023-02-12T17:00:47;5.40;99.90
24802;DHT22;12898;50.520;12.152;2023-02-12T17:03:14;5.40;99.90
24802;DHT22;12898;50.520;12.152;2023-02-12T17:05:41;5.30;99.90
24802;DHT22;12898;50.520;12.152;2023-02-12T17:08:12;5.30;99.90
24802;DHT22;12898;50.520;12.152;2023-02-12T17:10:39;5.30;99.90
24802;DHT22;12898;50.520;12.152;2023-02-12T17:13:05;5.30;99.90
24802;DHT22;12898;50.520;12.152;2023-02-12T17:15:36;5.30;99.90
24802;DHT22;12898;50.520;12.152;2023-02-12T17:18:07;5.20;99.90
24802;DHT22;12898;50.520;12.152;2023-02-12T17:20:36;5.20;99.90
24802;DHT22;12898;50.520;12.152;2023-02-12T17:23:02;5.20;99.90
24802;DHT22;12898;50.520;12.152;2023-02-12T17:25:29;5.20;99.90
24802;DHT22;12898;50.520;12.152;2023-02-12T17:27:55;5.20;99.90
24802;DHT22;12898;50.520;12.152;2023-02-12T17:30:22;5.20;99.90
24802;DHT22;12898;50.520;12.152;2023-02-12T17:32:51;5.10;99.90
24802;DHT22;12898;50.520;12.152;2023-02-12T17:35:17;5.10;99.90
24802;DHT22;12898;50.520;12.152;2023-02-12T17:37:43;5.00;99.90
24802;DHT22;12898;50.520;12.152;2023-02-12T17:40:09;5.00;99.90
24802;DHT22;12898;50.520;12.152;2023-02-12T17:42:38;5.00;99.90
24802;DHT22;12898;50.520;12.152;2023-02-12T17:45:04;5.00;99.90
24802;DHT22;12898;50.520;12.152;2023-02-12T17:47:30;5.00;99.90
24802;DHT22;12898;50.520;12.152;2023-02-12T17:49:57;5.00;99.90
24802;DHT22;12898;50.520;12.152;2023-02-12T17:52:24;5.00;99.90
24802;DHT22;12898;50.520;12.152;2023-02-12T17:54:50;4.90;99.90
24802;DHT22;12898;50.520;12.152;2023-02-12T17:57:16;4.90;99.90
24802;DHT22;12898;50.520;12.152;2023-02-12T17:59:42;4.80;99.90
24802;DHT22;12898;50.520;12.152;2023-02-12T18:02:10;4.80;99.90
24802;DHT22;12898;50.520;12.152;2023-02-12T18:04:36;4.80;99.90
24802;DHT22;12898;50.520;12.152;2023-02-12T18:07:03;4.80;99.90
24802;DHT22;12898;50.520;12.152;2023-02-12T18:09:30;4.70;99.90
24802;DHT22;12898;50.520;12.152;2023-02-12T18:11:55;4.70;99.90
24802;DHT22;12898;50.520;12.152;2023-02-12T18:14:21;4.70;99.90
24802;DHT22;12898;50.520;12.152;2023-02-12T18:16:47;4.70;99.90
24802;DHT22;12898;50.520;12.152;2023-02-12T18:19:12;4.60;99.90
24802;DHT22;12898;50.520;12.152;2023-02-12T18:21:39;4.60;99.90
24802;DHT22;12898;50.520;12.152;2023-02-12T18:24:05;4.60;99.90
24802;DHT22;12898;50.520;12.152;2023-02-12T18:26:31;4.50;99.90
24802;DHT22;12898;50.520;12.152;2023-02-12T18:28:57;4.50;99.90
24802;DHT22;12898;50.520;12.152;2023-02-12T18:31:24;4.50;99.90
24802;DHT22;12898;50.520;12.152;2023-02-12T18:33:49;4.40;99.90
24802;DHT22;12898;50.520;12.152;2023-02-12T18:36:17;4.40;99.90
24802;DHT22;12898;50.520;12.152;2023-02-12T18:38:45;4.40;99.90
24802;DHT22;12898;50.520;12.152;2023-02-12T18:41:18;4.40;99.90
24802;DHT22;12898;50.520;12.152;2023-02-12T18:43:46;4.40;99.90
24802;DHT22;12898;50.520;12.152;2023-02-12T18:46:14;4.40;99.90
24802;DHT22;12898;50.520;12.152;2023-02-12T18:48:44;4.40;99.90
24802;DHT22;12898;50.520;12.152;2023-02-12T18:51:14;4.40;99.90
24802;DHT22;12898;50.520;12.152;2023-02-12T18:53:41;4.40;99.90
24802;DHT22;12898;50.520;12.152;2023-02-12T18:56:09;4.40;99.90